KAJR

Habersham County Airport

Cornelia, Georgia, USA
METAR KAJR 181555Z AUTO 13005KT 7SM CLR 17/07 A3041 RMK AO2 T01660065
Observed Flight Rules
Oct-18 @ 15:55 UTC (25 minutes ago) Visual Flight Rules
Wind Visibility Clouds
130° at 5 knots 7 miles
  • Clear skies
Temperatures Readings
Current 17°C / 63°F
Dewpoint 7°C / 45°F
Humidity 52%
Altimeter 30.41" Hg
Pressure 1030 hPa
Elevation 441
METAR KAJR 181555Z AUTO 13005KT 7SM CLR 17/07 A3041 RMK AO2 T01660065
Observed Flight Rules
Oct-18 @ 15:55 UTC
(25 minutes ago)
VFR
Wind Visibility
130° at 5 knots 7 miles
Clouds
  • Clear skies
Temperature Dewpoint
17°C / 63°F 7°C / 45°F
Humidity Altimeter Pressure
52% 30.41" Hg 1030 hPa